createdAt,value
2018-01-16T01:39:11.023Z,988.34
2018-01-16T01:39:11.529Z,988.34
2018-01-16T01:39:12.129Z,988.33
2018-01-16T01:39:12.729Z,988.36
2018-01-16T01:39:13.338Z,988.34
2018-01-16T01:39:13.929Z,988.35
2018-01-16T01:39:14.527Z,988.37
2018-01-16T01:39:15.126Z,988.34
2018-01-16T01:40:09.590Z,988.44
2018-01-16T01:40:10.160Z,988.39
2018-01-16T01:40:10.757Z,988.39
2018-01-16T01:40:11.358Z,988.38
2018-01-16T01:40:11.956Z,988.43
2018-01-16T01:40:12.556Z,988.42
2018-01-16T01:40:13.158Z,988.40
2018-01-16T01:40:13.756Z,988.42
2018-01-16T01:41:08.264Z,988.43
2018-01-16T01:41:08.857Z,988.39
2018-01-16T01:41:09.437Z,988.44
2018-01-16T01:41:10.035Z,988.43
2018-01-16T01:41:10.630Z,988.40
2018-01-16T01:41:11.231Z,988.41
2018-01-16T01:41:11.830Z,988.41
2018-01-16T01:41:12.430Z,988.41
2018-01-16T01:42:05.917Z,988.44
2018-01-16T01:42:06.487Z,988.43
2018-01-16T01:42:07.085Z,988.44
2018-01-16T01:42:07.687Z,988.43
2018-01-16T01:42:08.286Z,988.46
2018-01-16T01:42:08.887Z,988.42
2018-01-16T01:42:09.485Z,988.43
2018-01-16T01:42:10.085Z,988.41
2018-01-16T01:43:03.572Z,988.42
2018-01-16T01:43:04.140Z,988.42
2018-01-16T01:43:04.739Z,988.42
2018-01-16T01:43:05.337Z,988.42
2018-01-16T01:43:05.936Z,988.44
2018-01-16T01:43:06.537Z,988.42
2018-01-16T01:43:07.138Z,988.41
2018-01-16T01:43:07.736Z,988.41
2018-01-16T01:44:02.244Z,988.47
2018-01-16T01:44:02.815Z,988.44
2018-01-16T01:44:03.413Z,988.47
2018-01-16T01:44:04.029Z,988.50
2018-01-16T01:44:04.614Z,988.50
2018-01-16T01:44:05.214Z,988.49
2018-01-16T01:44:05.814Z,988.47
2018-01-16T01:44:06.414Z,988.49
2018-01-16T01:45:00.001Z,988.46
2018-01-16T01:45:00.570Z,988.47
2018-01-16T01:45:01.168Z,988.46
2018-01-16T01:45:01.775Z,988.49
2018-01-16T01:45:02.371Z,988.51
2018-01-16T01:45:02.969Z,988.48
2018-01-16T01:45:03.568Z,988.49
2018-01-16T01:45:04.168Z,988.50
2018-01-16T01:45:58.162Z,988.44
2018-01-16T01:45:58.738Z,988.46
2018-01-16T01:45:59.332Z,988.40
2018-01-16T01:45:59.932Z,988.44
2018-01-16T01:46:00.532Z,988.42
2018-01-16T01:46:01.132Z,988.42
2018-01-16T01:46:01.733Z,988.42
2018-01-16T01:46:55.304Z,988.48
2018-01-16T01:46:55.872Z,988.46
2018-01-16T01:46:56.472Z,988.45
2018-01-16T01:46:57.072Z,988.47
2018-01-16T01:46:57.673Z,988.47
2018-01-16T01:46:58.273Z,988.50
2018-01-16T01:46:58.873Z,988.47
2018-01-16T01:46:59.471Z,988.45
2018-01-16T01:47:53.978Z,988.41
2018-01-16T01:47:54.548Z,988.39
2018-01-16T01:47:55.148Z,988.38
2018-01-16T01:47:55.748Z,988.38
2018-01-16T01:47:56.348Z,988.39
2018-01-16T01:47:56.952Z,988.41
2018-01-16T01:47:57.548Z,988.41
2018-01-16T01:47:58.147Z,988.43
2018-01-16T01:48:52.654Z,988.49
2018-01-16T01:48:53.224Z,988.48
2018-01-16T01:48:53.823Z,988.42
2018-01-16T01:48:54.422Z,988.41
2018-01-16T01:48:55.025Z,988.45
2018-01-16T01:48:55.623Z,988.42
2018-01-16T01:48:56.223Z,988.47
2018-01-16T01:48:56.822Z,988.48
2018-01-16T01:49:50.307Z,988.41
2018-01-16T01:49:50.881Z,988.45
2018-01-16T01:49:51.477Z,988.43
2018-01-16T01:49:52.075Z,988.42
2018-01-16T01:49:52.676Z,988.44
2018-01-16T01:49:53.275Z,988.47
2018-01-16T01:49:53.875Z,988.50
2018-01-16T01:49:54.476Z,988.51
2018-01-16T01:50:48.982Z,988.45
2018-01-16T01:50:49.551Z,988.43
2018-01-16T01:50:50.151Z,988.46
2018-01-16T01:50:50.751Z,988.44
2018-01-16T01:50:51.352Z,988.46
2018-01-16T01:50:51.951Z,988.45
2018-01-16T01:50:52.549Z,988.45
2018-01-16T01:50:53.151Z,988.42
2018-01-16T01:51:47.656Z,988.54
2018-01-16T01:51:48.228Z,988.55
2018-01-16T01:51:48.826Z,988.51
2018-01-16T01:51:49.426Z,988.57
2018-01-16T01:51:50.028Z,988.53
2018-01-16T01:51:50.626Z,988.51
2018-01-16T01:51:51.227Z,988.51
2018-01-16T01:51:51.827Z,988.50
2018-01-16T01:52:46.339Z,988.50
2018-01-16T01:52:46.904Z,988.50
2018-01-16T01:52:47.503Z,988.47
2018-01-16T01:52:48.104Z,988.50
2018-01-16T01:52:48.702Z,988.51
2018-01-16T01:52:49.302Z,988.48
2018-01-16T01:52:49.903Z,988.47
2018-01-16T01:52:50.502Z,988.48
2018-01-16T01:53:43.989Z,988.49
2018-01-16T01:53:44.554Z,988.54
2018-01-16T01:53:45.155Z,988.52
2018-01-16T01:53:45.756Z,988.52
2018-01-16T01:53:46.353Z,988.51
2018-01-16T01:53:46.954Z,988.46
2018-01-16T01:53:47.553Z,988.54
2018-01-16T01:53:48.193Z,988.53
2018-01-16T01:54:42.661Z,988.58
2018-01-16T01:54:43.230Z,988.57
2018-01-16T01:54:43.831Z,988.59
2018-01-16T01:54:44.430Z,988.57
2018-01-16T01:54:45.030Z,988.59
2018-01-16T01:54:45.629Z,988.59
2018-01-16T01:54:46.231Z,988.63
2018-01-16T01:54:46.829Z,988.60
2018-01-16T01:55:40.314Z,988.66
2018-01-16T01:55:40.883Z,988.70
2018-01-16T01:55:41.485Z,988.66
2018-01-16T01:55:42.083Z,988.68
2018-01-16T01:55:42.682Z,988.67
2018-01-16T01:55:43.282Z,988.66
2018-01-16T01:55:43.882Z,988.67
2018-01-16T01:55:44.481Z,988.67
2018-01-16T01:56:38.986Z,988.69
2018-01-16T01:56:39.559Z,988.69
2018-01-16T01:56:40.159Z,988.68
2018-01-16T01:56:40.757Z,988.71
2018-01-16T01:56:41.357Z,988.70
2018-01-16T01:56:41.957Z,988.70
2018-01-16T01:56:42.556Z,988.73
2018-01-16T01:56:43.157Z,988.70
2018-01-16T01:57:36.643Z,988.74
2018-01-16T01:57:37.210Z,988.74
2018-01-16T01:57:37.813Z,988.70
2018-01-16T01:57:38.414Z,988.69
2018-01-16T01:57:39.013Z,988.68
2018-01-16T01:57:39.609Z,988.71
2018-01-16T01:57:40.208Z,988.70
2018-01-16T01:57:40.810Z,988.75
2018-01-16T01:58:34.292Z,988.64
2018-01-16T01:58:34.862Z,988.61
2018-01-16T01:58:35.465Z,988.64
2018-01-16T01:58:36.062Z,988.63
2018-01-16T01:58:36.662Z,988.62
2018-01-16T01:58:37.263Z,988.62
2018-01-16T01:58:37.862Z,988.63
2018-01-16T01:58:38.465Z,988.63
2018-01-16T01:59:31.943Z,988.58
2018-01-16T01:59:32.514Z,988.58
2018-01-16T01:59:33.114Z,988.56
2018-01-16T01:59:33.712Z,988.57
2018-01-16T01:59:34.313Z,988.60
2018-01-16T01:59:34.913Z,988.59
2018-01-16T01:59:35.512Z,988.58
2018-01-16T01:59:36.112Z,988.59
2018-01-16T02:00:30.619Z,988.55
2018-01-16T02:00:31.190Z,988.57
2018-01-16T02:00:31.787Z,988.55
2018-01-16T02:00:32.389Z,988.54
2018-01-16T02:00:32.994Z,988.58
2018-01-16T02:00:33.588Z,988.56
2018-01-16T02:00:34.188Z,988.57
2018-01-16T02:00:34.790Z,988.58
2018-01-16T02:01:28.272Z,988.56
2018-01-16T02:01:28.842Z,988.59
2018-01-16T02:01:29.441Z,988.58
2018-01-16T02:01:30.041Z,988.55
2018-01-16T02:01:30.640Z,988.56
2018-01-16T02:01:31.241Z,988.53
2018-01-16T02:01:31.841Z,988.55
2018-01-16T02:01:32.445Z,988.52
2018-01-16T02:02:26.944Z,988.53
2018-01-16T02:02:27.517Z,988.57
2018-01-16T02:02:28.117Z,988.57
2018-01-16T02:02:28.714Z,988.54
2018-01-16T02:02:29.316Z,988.58
2018-01-16T02:02:29.914Z,988.57
2018-01-16T02:02:30.514Z,988.50
2018-01-16T02:02:31.116Z,988.52
2018-01-16T02:03:24.703Z,988.56
2018-01-16T02:03:25.271Z,988.58
2018-01-16T02:03:25.871Z,988.57
2018-01-16T02:03:26.471Z,988.55
2018-01-16T02:03:27.070Z,988.56
2018-01-16T02:03:27.670Z,988.54
2018-01-16T02:03:28.270Z,988.56
2018-01-16T02:03:28.871Z,988.55
2018-01-16T02:04:22.353Z,988.44
2018-01-16T02:04:22.932Z,988.45
2018-01-16T02:04:23.521Z,988.43
2018-01-16T02:04:24.127Z,988.46
2018-01-16T02:04:24.721Z,988.44
2018-01-16T02:04:25.320Z,988.48
2018-01-16T02:04:25.923Z,988.45
2018-01-16T02:04:26.522Z,988.41
2018-01-16T02:05:21.026Z,988.45
2018-01-16T02:05:21.601Z,988.51
2018-01-16T02:05:22.199Z,988.52
2018-01-16T02:05:22.797Z,988.51
2018-01-16T02:05:23.396Z,988.47
2018-01-16T02:05:23.997Z,988.49
2018-01-16T02:05:24.596Z,988.51
2018-01-16T02:05:25.198Z,988.50
2018-01-16T02:06:19.708Z,988.48
2018-01-16T02:06:20.272Z,988.50
2018-01-16T02:06:20.875Z,988.49
2018-01-16T02:06:21.473Z,988.48
2018-01-16T02:06:22.071Z,988.49
2018-01-16T02:06:22.672Z,988.47
2018-01-16T02:06:23.271Z,988.50
2018-01-16T02:06:23.872Z,988.56
2018-01-16T02:07:18.383Z,988.54
2018-01-16T02:07:18.955Z,988.54
2018-01-16T02:07:19.549Z,988.57
2018-01-16T02:07:20.149Z,988.56
2018-01-16T02:07:20.749Z,988.51
2018-01-16T02:07:21.349Z,988.52
2018-01-16T02:07:21.948Z,988.50
2018-01-16T02:07:22.548Z,988.48
2018-01-16T02:08:17.060Z,988.54
2018-01-16T02:08:17.624Z,988.49
2018-01-16T02:08:18.227Z,988.46
2018-01-16T02:08:18.824Z,988.43
2018-01-16T02:08:19.423Z,988.45
2018-01-16T02:08:20.023Z,988.44
2018-01-16T02:08:20.624Z,988.46
2018-01-16T02:08:21.223Z,988.49
2018-01-16T02:09:14.713Z,988.45
2018-01-16T02:09:15.278Z,988.46
2018-01-16T02:09:15.877Z,988.41
2018-01-16T02:09:16.479Z,988.40
2018-01-16T02:09:17.077Z,988.41
2018-01-16T02:09:17.679Z,988.38
2018-01-16T02:09:18.275Z,988.40
2018-01-16T02:09:18.874Z,988.39
2018-01-16T02:10:12.358Z,988.43
2018-01-16T02:10:12.931Z,988.46
2018-01-16T02:10:13.530Z,988.45
2018-01-16T02:10:14.127Z,988.44
2018-01-16T02:10:14.728Z,988.45
2018-01-16T02:10:15.331Z,988.45
2018-01-16T02:10:15.926Z,988.46
2018-01-16T02:10:16.528Z,988.42
2018-01-16T02:11:11.035Z,988.47
2018-01-16T02:11:11.604Z,988.44
2018-01-16T02:11:12.204Z,988.44
2018-01-16T02:11:12.804Z,988.49
2018-01-16T02:11:13.414Z,988.43
2018-01-16T02:11:14.004Z,988.43
2018-01-16T02:11:14.602Z,988.47
2018-01-16T02:11:15.203Z,988.45
2018-01-16T02:12:09.710Z,988.52
2018-01-16T02:12:10.279Z,988.48
2018-01-16T02:12:10.879Z,988.51
2018-01-16T02:12:11.479Z,988.50
2018-01-16T02:12:12.079Z,988.51
2018-01-16T02:12:12.679Z,988.49
2018-01-16T02:12:13.277Z,988.53
2018-01-16T02:12:13.877Z,988.52
2018-01-16T02:13:07.362Z,988.50
2018-01-16T02:13:07.931Z,988.51
2018-01-16T02:13:08.530Z,988.49
2018-01-16T02:13:09.131Z,988.49
2018-01-16T02:13:09.731Z,988.49
2018-01-16T02:13:10.331Z,988.50
2018-01-16T02:13:10.930Z,988.49
2018-01-16T02:13:11.532Z,988.49
2018-01-16T02:14:05.116Z,988.50
2018-01-16T02:14:05.686Z,988.50
2018-01-16T02:14:06.286Z,988.46
2018-01-16T02:14:06.885Z,988.50
2018-01-16T02:14:07.484Z,988.48
2018-01-16T02:14:08.086Z,988.50
2018-01-16T02:14:08.687Z,988.52
2018-01-16T02:14:09.287Z,988.49
2018-01-16T02:15:04.303Z,988.55
2018-01-16T02:15:04.875Z,988.56
2018-01-16T02:15:05.472Z,988.54
2018-01-16T02:15:06.071Z,988.53
2018-01-16T02:15:06.672Z,988.53
2018-01-16T02:15:07.272Z,988.54
2018-01-16T02:15:07.871Z,988.53
2018-01-16T02:16:01.444Z,988.53
2018-01-16T02:16:02.014Z,988.56
2018-01-16T02:16:02.620Z,988.55
2018-01-16T02:16:03.214Z,988.56
2018-01-16T02:16:03.813Z,988.53
2018-01-16T02:16:04.412Z,988.58
2018-01-16T02:16:05.012Z,988.49
2018-01-16T02:16:05.612Z,988.54
2018-01-16T02:17:00.117Z,988.50
2018-01-16T02:17:00.688Z,988.52
2018-01-16T02:17:01.288Z,988.50
2018-01-16T02:17:01.887Z,988.49
2018-01-16T02:17:02.487Z,988.52
2018-01-16T02:17:03.089Z,988.54
2018-01-16T02:17:03.692Z,988.51
2018-01-16T02:17:04.286Z,988.46
2018-01-16T02:17:58.795Z,988.49
2018-01-16T02:17:59.363Z,988.49
2018-01-16T02:17:59.962Z,988.50
2018-01-16T02:18:00.563Z,988.48
2018-01-16T02:18:01.166Z,988.48
2018-01-16T02:18:01.764Z,988.47
2018-01-16T02:18:02.368Z,988.50
2018-01-16T02:18:02.961Z,988.51
2018-01-16T02:19:25.630Z,988.51
2018-01-16T02:19:26.201Z,988.44
2018-01-16T02:19:26.799Z,988.48
2018-01-16T02:19:27.398Z,988.47
2018-01-16T02:19:28.000Z,988.52
2018-01-16T02:19:28.599Z,988.48
2018-01-16T02:19:29.199Z,988.49
2018-01-16T02:19:29.799Z,988.49
2018-01-16T02:19:30.397Z,988.47
2018-01-16T02:19:30.999Z,988.51
2018-01-16T02:20:26.044Z,988.53
2018-01-16T02:20:26.616Z,988.52
2018-01-16T02:20:27.215Z,988.50
2018-01-16T02:20:27.815Z,988.52
2018-01-16T02:20:28.425Z,988.57
2018-01-16T02:20:29.015Z,988.54
2018-01-16T02:20:29.620Z,988.51
2018-01-16T02:20:30.218Z,988.50
2018-01-16T02:21:23.704Z,988.43
2018-01-16T02:21:24.268Z,988.47
2018-01-16T02:21:24.867Z,988.46
2018-01-16T02:21:25.468Z,988.46
2018-01-16T02:21:26.067Z,988.48
2018-01-16T02:21:26.667Z,988.48
2018-01-16T02:21:27.268Z,988.47
2018-01-16T02:21:27.866Z,988.45
2018-01-16T02:22:21.350Z,988.51
2018-01-16T02:22:21.919Z,988.51
2018-01-16T02:22:22.524Z,988.51
2018-01-16T02:22:23.121Z,988.49
2018-01-16T02:22:23.716Z,988.51
2018-01-16T02:22:24.317Z,988.51
2018-01-16T02:22:24.918Z,988.53
2018-01-16T02:22:25.516Z,988.49
2018-01-16T02:23:19.520Z,988.46
2018-01-16T02:23:20.088Z,988.50
2018-01-16T02:23:20.682Z,988.49
2018-01-16T02:23:21.282Z,988.46
2018-01-16T02:23:21.881Z,988.49
2018-01-16T02:23:22.482Z,988.51
2018-01-16T02:23:23.081Z,988.49
2018-01-16T02:24:16.657Z,988.45
2018-01-16T02:24:17.224Z,988.47
2018-01-16T02:24:17.822Z,988.44
2018-01-16T02:24:18.434Z,988.46
2018-01-16T02:24:19.023Z,988.46
2018-01-16T02:24:19.623Z,988.46
2018-01-16T02:24:20.223Z,988.46
2018-01-16T02:24:20.823Z,988.46
2018-01-16T02:25:15.327Z,988.49
2018-01-16T02:25:15.898Z,988.48
2018-01-16T02:25:16.498Z,988.50
2018-01-16T02:25:17.097Z,988.49
2018-01-16T02:25:17.699Z,988.49
2018-01-16T02:25:18.299Z,988.50
2018-01-16T02:25:18.898Z,988.46
2018-01-16T02:25:19.497Z,988.44
2018-01-16T02:26:14.002Z,988.50
2018-01-16T02:26:14.574Z,988.52
2018-01-16T02:26:15.173Z,988.50
2018-01-16T02:26:15.776Z,988.53
2018-01-16T02:26:16.375Z,988.53
2018-01-16T02:26:16.974Z,988.54
2018-01-16T02:26:17.572Z,988.54
2018-01-16T02:26:18.172Z,988.51
2018-01-16T02:27:12.680Z,988.49
2018-01-16T02:27:13.249Z,988.50
2018-01-16T02:27:13.849Z,988.48
2018-01-16T02:27:14.450Z,988.48
2018-01-16T02:27:15.049Z,988.48
2018-01-16T02:27:15.651Z,988.45
2018-01-16T02:27:16.247Z,988.47
2018-01-16T02:27:16.847Z,988.48
2018-01-16T02:28:10.330Z,988.48
2018-01-16T02:28:10.902Z,988.47
2018-01-16T02:28:11.501Z,988.42
2018-01-16T02:28:12.101Z,988.44
2018-01-16T02:28:12.700Z,988.46
2018-01-16T02:28:13.302Z,988.46
2018-01-16T02:28:13.901Z,988.42
2018-01-16T02:28:14.502Z,988.46
2018-01-16T02:29:07.984Z,988.49
2018-01-16T02:29:08.553Z,988.45
2018-01-16T02:29:09.154Z,988.48
2018-01-16T02:29:09.752Z,988.47
2018-01-16T02:29:10.354Z,988.50
2018-01-16T02:29:10.953Z,988.49
2018-01-16T02:29:11.553Z,988.47
2018-01-16T02:29:12.154Z,988.45
2018-01-16T02:30:05.637Z,988.57
2018-01-16T02:30:06.208Z,988.55
2018-01-16T02:30:06.805Z,988.55
2018-01-16T02:30:07.408Z,988.55
2018-01-16T02:30:08.011Z,988.56
2018-01-16T02:30:08.605Z,988.59
2018-01-16T02:30:09.204Z,988.58
2018-01-16T02:30:09.810Z,988.54
2018-01-16T02:31:04.310Z,988.62
2018-01-16T02:31:04.883Z,988.61
2018-01-16T02:31:05.480Z,988.60
2018-01-16T02:31:06.080Z,988.64
2018-01-16T02:31:06.682Z,988.62
2018-01-16T02:31:07.291Z,988.61
2018-01-16T02:31:07.879Z,988.63
2018-01-16T02:31:08.478Z,988.60
2018-01-16T02:32:03.503Z,988.58
2018-01-16T02:32:04.069Z,988.62
2018-01-16T02:32:04.667Z,988.64
2018-01-16T02:32:05.269Z,988.65
2018-01-16T02:32:05.867Z,988.61
2018-01-16T02:32:06.470Z,988.62
2018-01-16T02:32:07.068Z,988.64
2018-01-16T02:33:00.639Z,988.66
2018-01-16T02:33:01.209Z,988.66
2018-01-16T02:33:01.807Z,988.68
2018-01-16T02:33:02.407Z,988.68
2018-01-16T02:33:03.006Z,988.66
2018-01-16T02:33:03.608Z,988.70
2018-01-16T02:33:04.208Z,988.65
2018-01-16T02:33:04.810Z,988.67
2018-01-16T02:33:59.315Z,988.69
2018-01-16T02:33:59.884Z,988.64
2018-01-16T02:34:00.482Z,988.69
2018-01-16T02:34:01.084Z,988.66
2018-01-16T02:34:01.683Z,988.63
2018-01-16T02:34:02.283Z,988.66
2018-01-16T02:34:02.881Z,988.66
2018-01-16T02:34:03.480Z,988.64
2018-01-16T02:52:14.900Z,988.32
2018-01-16T02:52:15.465Z,988.31
2018-01-16T02:52:16.065Z,988.33
2018-01-16T02:52:16.664Z,988.30
2018-01-16T02:52:17.263Z,988.28
2018-01-16T02:52:17.863Z,988.34
2018-01-16T02:52:18.465Z,988.31
2018-01-16T02:52:19.066Z,988.34
2018-01-16T02:53:12.548Z,988.29
2018-01-16T02:53:13.118Z,988.32
2018-01-16T02:53:13.717Z,988.29
2018-01-16T02:53:14.338Z,988.30
2018-01-16T02:53:14.914Z,988.30
2018-01-16T02:53:15.518Z,988.33
2018-01-16T02:53:16.118Z,988.27
2018-01-16T02:53:16.716Z,988.29
2018-01-16T02:54:11.224Z,988.27
2018-01-16T02:54:11.795Z,988.29
2018-01-16T02:54:12.397Z,988.28
2018-01-16T02:54:12.992Z,988.27
2018-01-16T02:54:13.592Z,988.23
2018-01-16T02:54:14.191Z,988.27
2018-01-16T02:54:14.791Z,988.32
2018-01-16T02:54:15.392Z,988.29
2018-01-16T02:55:08.875Z,988.28
2018-01-16T02:55:09.447Z,988.29
2018-01-16T02:55:10.045Z,988.26
2018-01-16T02:55:10.644Z,988.27
2018-01-16T02:55:11.245Z,988.20
2018-01-16T02:55:11.845Z,988.26
2018-01-16T02:55:12.445Z,988.25
2018-01-16T02:55:13.044Z,988.27
2018-01-16T02:56:06.528Z,988.25
2018-01-16T02:56:07.098Z,988.29
2018-01-16T02:56:07.697Z,988.25
2018-01-16T02:56:08.297Z,988.26
2018-01-16T02:56:08.896Z,988.24
2018-01-16T02:56:09.498Z,988.26
2018-01-16T02:56:10.097Z,988.26
2018-01-16T02:56:10.696Z,988.22
2018-01-16T02:57:05.202Z,988.22
2018-01-16T02:57:05.772Z,988.27
2018-01-16T02:57:06.371Z,988.20
2018-01-16T02:57:06.972Z,988.25
2018-01-16T02:57:07.573Z,988.22
2018-01-16T02:57:08.172Z,988.23
2018-01-16T02:57:08.771Z,988.25
2018-01-16T02:57:09.371Z,988.21
2018-01-16T02:58:03.879Z,988.28
2018-01-16T02:58:04.449Z,988.26
2018-01-16T02:58:05.048Z,988.23
2018-01-16T02:58:05.648Z,988.21
2018-01-16T02:58:06.247Z,988.29
2018-01-16T02:58:06.849Z,988.25
2018-01-16T02:58:07.447Z,988.28
2018-01-16T02:58:08.048Z,988.25
2018-01-16T02:59:01.531Z,988.23
2018-01-16T02:59:02.101Z,988.21
2018-01-16T02:59:02.701Z,988.25
2018-01-16T02:59:03.303Z,988.23
2018-01-16T02:59:03.904Z,988.22
2018-01-16T02:59:04.501Z,988.23
2018-01-16T02:59:05.101Z,988.23
2018-01-16T02:59:05.701Z,988.25
2018-01-16T03:00:00.209Z,988.23
2018-01-16T03:00:00.781Z,988.22
2018-01-16T03:00:01.379Z,988.17
2018-01-16T03:00:01.977Z,988.20
2018-01-16T03:00:02.586Z,988.22
2018-01-16T03:00:03.179Z,988.24
2018-01-16T03:00:03.778Z,988.21
2018-01-16T03:00:04.377Z,988.22
2018-01-16T03:00:58.882Z,988.18
2018-01-16T03:00:59.455Z,988.21
2018-01-16T03:01:00.052Z,988.18
2018-01-16T03:01:00.650Z,988.17
2018-01-16T03:01:01.252Z,988.17
2018-01-16T03:01:01.852Z,988.20
2018-01-16T03:01:02.451Z,988.18
2018-01-16T03:01:03.050Z,988.18
2018-01-16T03:01:56.534Z,988.19
2018-01-16T03:01:57.106Z,988.17
2018-01-16T03:01:57.703Z,988.16
2018-01-16T03:01:58.304Z,988.20
2018-01-16T03:01:58.904Z,988.20
2018-01-16T03:01:59.503Z,988.21
2018-01-16T03:02:00.104Z,988.21
2018-01-16T03:02:00.704Z,988.21
2018-01-16T03:02:54.187Z,988.23
2018-01-16T03:02:54.756Z,988.17
2018-01-16T03:02:55.359Z,988.21
2018-01-16T03:02:55.955Z,988.18
2018-01-16T03:02:56.558Z,988.20
2018-01-16T03:02:57.156Z,988.20
2018-01-16T03:02:57.756Z,988.21
2018-01-16T03:02:58.354Z,988.21
2018-01-16T03:03:52.860Z,988.11
2018-01-16T03:03:53.432Z,988.17
2018-01-16T03:03:54.031Z,988.15
2018-01-16T03:03:54.633Z,988.15
2018-01-16T03:03:55.235Z,988.12
2018-01-16T03:03:55.831Z,988.13
2018-01-16T03:03:56.430Z,988.10
2018-01-16T03:03:57.031Z,988.10
2018-01-16T03:04:50.518Z,988.11
2018-01-16T03:04:51.085Z,988.15
2018-01-16T03:04:51.686Z,988.11
2018-01-16T03:04:52.283Z,988.13
2018-01-16T03:04:52.882Z,988.13
2018-01-16T03:04:53.484Z,988.12
2018-01-16T03:04:54.083Z,988.12
2018-01-16T03:04:54.685Z,988.10
2018-01-16T03:05:49.209Z,988.12
2018-01-16T03:05:49.759Z,988.13
2018-01-16T03:05:50.360Z,988.14
2018-01-16T03:05:50.958Z,988.13
2018-01-16T03:05:51.559Z,988.14
2018-01-16T03:05:52.158Z,988.13
2018-01-16T03:05:52.758Z,988.13
2018-01-16T03:05:53.358Z,988.10
2018-01-16T03:06:49.532Z,988.11
2018-01-16T03:06:50.030Z,988.12
2018-01-16T03:06:50.610Z,988.10
2018-01-16T03:06:51.213Z,988.11
2018-01-16T03:06:51.773Z,988.11
2018-01-16T03:06:52.435Z,988.13
2018-01-16T03:07:46.543Z,988.07
2018-01-16T03:07:47.113Z,988.06
2018-01-16T03:07:47.712Z,988.05
2018-01-16T03:07:48.311Z,988.10
2018-01-16T03:07:48.911Z,988.06
2018-01-16T03:07:49.510Z,988.03
2018-01-16T03:07:50.111Z,988.05
2018-01-16T03:07:50.709Z,988.08
2018-01-16T03:08:44.194Z,988.04
2018-01-16T03:08:44.762Z,987.98
2018-01-16T03:08:45.362Z,988.03
2018-01-16T03:08:45.962Z,988.03
2018-01-16T03:08:46.564Z,988.04
2018-01-16T03:08:47.161Z,988.00
2018-01-16T03:08:47.760Z,988.06
2018-01-16T03:08:48.360Z,988.04
2018-01-16T03:09:42.869Z,987.99
2018-01-16T03:09:43.438Z,988.02
2018-01-16T03:09:44.038Z,988.01
2018-01-16T03:09:44.638Z,988.01
2018-01-16T03:09:45.238Z,988.02
2018-01-16T03:09:45.838Z,988.01
2018-01-16T03:09:46.438Z,988.00
2018-01-16T03:09:47.037Z,988.00
2018-01-16T03:10:40.519Z,987.98
2018-01-16T03:10:41.090Z,987.98
2018-01-16T03:10:41.693Z,988.02
2018-01-16T03:10:42.290Z,988.00
2018-01-16T03:10:42.889Z,987.97
2018-01-16T03:10:43.496Z,988.02
2018-01-16T03:10:44.090Z,987.99
2018-01-16T03:10:44.689Z,988.01
2018-01-16T03:11:38.173Z,988.01
2018-01-16T03:11:38.741Z,987.97
2018-01-16T03:11:39.343Z,987.97
2018-01-16T03:11:39.941Z,987.97
2018-01-16T03:11:40.542Z,987.99
2018-01-16T03:11:41.140Z,987.99
2018-01-16T03:11:41.740Z,988.01
2018-01-16T03:11:42.343Z,987.98
2018-01-16T03:12:36.847Z,987.97
2018-01-16T03:12:37.415Z,987.99
2018-01-16T03:12:38.018Z,987.95
2018-01-16T03:12:38.617Z,987.97
2018-01-16T03:12:39.216Z,987.96
2018-01-16T03:12:39.815Z,988.00
2018-01-16T03:12:40.416Z,987.97
2018-01-16T03:12:41.015Z,987.99
2018-01-16T03:13:47.198Z,987.98
2018-01-16T03:13:47.770Z,987.97
2018-01-16T03:13:48.370Z,987.94
2018-01-16T03:13:48.968Z,987.95
2018-01-16T03:13:49.571Z,987.98
2018-01-16T03:13:50.165Z,987.99
2018-01-16T03:13:50.764Z,987.98
2018-01-16T03:13:51.363Z,988.00
2018-01-16T03:14:44.858Z,988.00
2018-01-16T03:14:45.419Z,987.99
2018-01-16T03:14:46.018Z,987.99
2018-01-16T03:14:46.616Z,987.97
2018-01-16T03:14:47.218Z,988.00
2018-01-16T03:14:47.817Z,988.00
2018-01-16T03:14:48.418Z,987.99
2018-01-16T03:14:49.028Z,988.02
2018-01-16T03:15:42.499Z,987.96
2018-01-16T03:15:43.070Z,987.96
2018-01-16T03:15:43.669Z,987.95
2018-01-16T03:15:44.269Z,987.92
2018-01-16T03:15:44.869Z,987.89
2018-01-16T03:15:45.469Z,987.94
2018-01-16T03:15:46.069Z,987.92
2018-01-16T03:15:46.671Z,987.94
2018-01-16T03:16:40.153Z,987.95
2018-01-16T03:16:40.724Z,987.93
2018-01-16T03:16:41.322Z,987.93
2018-01-16T03:16:41.922Z,987.93
2018-01-16T03:16:42.522Z,987.95
2018-01-16T03:16:43.122Z,987.94
2018-01-16T03:16:43.722Z,987.93
2018-01-16T03:16:44.321Z,987.90
2018-01-16T03:17:38.826Z,987.93
2018-01-16T03:17:39.397Z,987.95
2018-01-16T03:17:39.996Z,987.97
2018-01-16T03:17:40.598Z,987.91
2018-01-16T03:17:41.197Z,987.92
2018-01-16T03:17:41.796Z,987.96
2018-01-16T03:17:42.396Z,987.89
2018-01-16T03:17:42.996Z,987.92
2018-01-16T03:18:36.477Z,987.90
2018-01-16T03:18:37.049Z,987.92
2018-01-16T03:18:37.649Z,987.93
2018-01-16T03:18:38.250Z,987.92
2018-01-16T03:18:38.849Z,987.89
2018-01-16T03:18:39.448Z,987.89
2018-01-16T03:18:40.048Z,987.90
2018-01-16T03:18:40.649Z,987.88
2018-01-16T03:19:34.131Z,987.92
2018-01-16T03:19:34.700Z,987.96
2018-01-16T03:19:35.301Z,987.97
2018-01-16T03:19:35.903Z,987.91
2018-01-16T03:19:36.500Z,987.91
2018-01-16T03:19:37.099Z,987.94
2018-01-16T03:19:37.701Z,987.88
2018-01-16T03:19:38.299Z,987.89
2018-01-16T03:20:31.782Z,987.92
2018-01-16T03:20:32.351Z,987.93
2018-01-16T03:20:32.952Z,987.96
2018-01-16T03:20:33.556Z,987.90
2018-01-16T03:20:34.152Z,987.89
2018-01-16T03:20:34.751Z,987.92
2018-01-16T03:20:35.351Z,987.93
2018-01-16T03:20:35.950Z,987.92
2018-01-16T03:21:29.432Z,987.90
2018-01-16T03:21:30.007Z,987.90
2018-01-16T03:21:30.602Z,987.91
2018-01-16T03:21:31.202Z,987.91
2018-01-16T03:21:31.802Z,987.91
2018-01-16T03:21:32.402Z,987.90
2018-01-16T03:21:33.002Z,987.89
2018-01-16T03:21:33.602Z,987.88
2018-01-16T03:22:27.088Z,987.89
2018-01-16T03:22:27.655Z,987.88
2018-01-16T03:22:28.255Z,987.88
2018-01-16T03:22:28.857Z,987.88
2018-01-16T03:22:29.455Z,987.90
2018-01-16T03:22:30.055Z,987.88
2018-01-16T03:22:30.655Z,987.88
2018-01-16T03:22:31.256Z,987.88
2018-01-16T03:23:24.739Z,987.83
2018-01-16T03:23:25.308Z,987.83
2018-01-16T03:23:25.907Z,987.87
2018-01-16T03:23:26.507Z,987.88
2018-01-16T03:23:27.107Z,987.88
2018-01-16T03:23:27.707Z,987.86
2018-01-16T03:23:28.307Z,987.83
2018-01-16T03:23:28.909Z,987.89
2018-01-16T03:24:22.389Z,987.86
2018-01-16T03:24:22.960Z,987.83
2018-01-16T03:24:23.560Z,987.84
2018-01-16T03:24:24.159Z,987.85
2018-01-16T03:24:24.759Z,987.84
2018-01-16T03:24:25.358Z,987.84
2018-01-16T03:24:25.960Z,987.83
2018-01-16T03:24:26.557Z,987.85
2018-01-16T03:25:21.133Z,987.85
2018-01-16T03:25:21.640Z,987.84
2018-01-16T03:25:22.240Z,987.86
2018-01-16T03:25:22.840Z,987.85
2018-01-16T03:25:23.443Z,987.86
2018-01-16T03:25:24.038Z,987.87
2018-01-16T03:25:24.639Z,987.84
2018-01-16T03:25:25.238Z,987.83
2018-01-16T03:26:19.739Z,987.83
2018-01-16T03:26:20.311Z,987.80
2018-01-16T03:26:20.910Z,987.80
2018-01-16T03:26:21.510Z,987.82
2018-01-16T03:26:22.110Z,987.79
2018-01-16T03:26:22.710Z,987.82
2018-01-16T03:26:23.309Z,987.83
2018-01-16T03:26:23.908Z,987.81
2018-01-16T03:27:17.393Z,987.85
2018-01-16T03:27:17.964Z,987.82
2018-01-16T03:27:18.564Z,987.82
2018-01-16T03:27:19.162Z,987.83
2018-01-16T03:27:19.762Z,987.84
2018-01-16T03:27:20.362Z,987.80
2018-01-16T03:27:20.961Z,987.82
2018-01-16T03:27:21.562Z,987.82
2018-01-16T03:28:15.148Z,987.83